createdAt,value
2018-03-03T00:00:24.148Z,44.00
2018-03-03T00:02:52.408Z,43.90
2018-03-03T00:05:20.668Z,44.00
2018-03-03T00:07:48.897Z,44.00
2018-03-03T00:10:17.143Z,44.00
2018-03-03T00:12:45.407Z,43.90
2018-03-03T00:15:13.656Z,43.90
2018-03-03T00:17:41.887Z,44.00
2018-03-03T00:20:10.141Z,44.00
2018-03-03T00:22:41.173Z,44.00
2018-03-03T00:25:09.454Z,43.90
2018-03-03T00:27:37.734Z,44.10
2018-03-03T00:30:05.993Z,44.20
2018-03-03T00:32:34.221Z,44.30
2018-03-03T00:35:02.464Z,44.30
2018-03-03T00:37:30.731Z,44.20
2018-03-03T00:39:58.987Z,44.90
2018-03-03T00:42:27.241Z,44.10
2018-03-03T00:44:56.255Z,44.20
2018-03-03T00:47:24.510Z,44.10
2018-03-03T00:49:53.514Z,44.30
2018-03-03T00:52:22.512Z,44.20
2018-03-03T00:54:50.770Z,44.10
2018-03-03T00:57:19.774Z,44.30
2018-03-03T00:59:48.800Z,44.30
2018-03-03T01:02:17.043Z,44.20
2018-03-03T01:04:46.056Z,44.60
2018-03-03T01:07:14.352Z,44.50
2018-03-03T01:09:42.618Z,44.50
2018-03-03T01:12:10.849Z,44.60
2018-03-03T01:14:39.088Z,44.70
2018-03-03T01:17:07.362Z,44.90
2018-03-03T01:19:35.631Z,45.70
2018-03-03T01:22:03.866Z,44.80
2018-03-03T01:24:32.882Z,44.80
2018-03-03T01:27:01.164Z,44.70
2018-03-03T01:29:29.419Z,44.80
2018-03-03T01:31:58.663Z,44.70
2018-03-03T01:34:26.861Z,44.60
2018-03-03T01:36:55.107Z,44.50
2018-03-03T01:39:23.397Z,44.40
2018-03-03T01:41:51.637Z,44.50
2018-03-03T01:44:19.862Z,44.50
2018-03-03T01:46:48.105Z,44.50
2018-03-03T01:49:16.350Z,44.60
2018-03-03T01:51:45.357Z,44.80
2018-03-03T01:54:13.577Z,44.70
2018-03-03T01:56:41.842Z,44.70
2018-03-03T01:59:10.109Z,44.80
2018-03-03T02:01:38.377Z,44.70
2018-03-03T02:04:06.649Z,44.70
2018-03-03T02:06:34.899Z,44.70
2018-03-03T02:09:03.911Z,44.70
2018-03-03T02:11:32.143Z,44.70
2018-03-03T02:14:00.424Z,44.70
2018-03-03T02:16:29.173Z,44.70
2018-03-03T02:18:57.426Z,44.70
2018-03-03T02:21:25.692Z,44.50
2018-03-03T02:23:53.940Z,44.50
2018-03-03T02:26:22.188Z,44.50
2018-03-03T02:28:50.409Z,44.50
2018-03-03T02:31:19.683Z,44.70
2018-03-03T02:33:47.877Z,44.60
2018-03-03T02:36:16.902Z,44.50
2018-03-03T02:38:45.186Z,44.50
2018-03-03T02:41:13.438Z,44.50
2018-03-03T02:43:42.473Z,44.50
2018-03-03T02:46:10.712Z,44.40
2018-03-03T02:48:38.955Z,44.40
2018-03-03T02:51:07.183Z,44.50
2018-03-03T02:53:35.430Z,44.60
2018-03-03T02:56:04.466Z,44.50
2018-03-03T02:58:32.713Z,44.40
2018-03-03T03:01:00.962Z,44.60
2018-03-03T03:03:29.978Z,44.80
2018-03-03T03:05:58.987Z,44.80
2018-03-03T03:08:27.208Z,45.20
2018-03-03T03:10:55.473Z,44.60
2018-03-03T03:13:23.762Z,44.70
2018-03-03T03:15:52.021Z,45.00
2018-03-03T03:18:20.245Z,45.10
2018-03-03T03:20:49.247Z,45.20
2018-03-03T03:23:17.503Z,45.10
2018-03-03T03:25:46.503Z,45.40
2018-03-03T03:28:15.506Z,45.20
2018-03-03T03:30:44.523Z,45.20
2018-03-03T03:33:12.800Z,45.20
2018-03-03T03:35:41.032Z,45.20
2018-03-03T03:38:09.287Z,45.10
2018-03-03T03:40:37.522Z,45.10
2018-03-03T03:43:05.770Z,45.20
2018-03-03T03:45:34.782Z,45.30
2018-03-03T03:48:03.059Z,45.20
2018-03-03T03:50:31.286Z,45.20
2018-03-03T03:52:59.534Z,45.40
2018-03-03T03:55:27.805Z,45.40
2018-03-03T03:57:56.083Z,45.60
2018-03-03T04:00:24.390Z,45.50
2018-03-03T04:02:52.633Z,45.60
2018-03-03T04:05:20.870Z,45.90
2018-03-03T04:07:49.906Z,46.20
2018-03-03T04:10:18.277Z,46.10
2018-03-03T04:12:46.555Z,46.20
2018-03-03T04:15:14.791Z,46.30
2018-03-03T04:17:43.030Z,46.20
2018-03-03T04:20:11.311Z,46.20
2018-03-03T04:22:39.529Z,46.30
2018-03-03T04:25:08.566Z,46.20
2018-03-03T04:27:36.814Z,46.10
2018-03-03T04:30:05.823Z,46.30
2018-03-03T04:32:34.090Z,46.20
2018-03-03T04:35:02.334Z,46.30
2018-03-03T04:37:30.584Z,46.20
2018-03-03T04:39:58.839Z,46.40
2018-03-03T04:42:27.074Z,46.40
2018-03-03T04:44:56.082Z,46.60
2018-03-03T04:47:24.325Z,46.50
2018-03-03T04:49:52.570Z,46.70
2018-03-03T04:52:20.805Z,46.80
2018-03-03T04:54:49.056Z,46.80
2018-03-03T04:57:18.818Z,46.90
2018-03-03T05:02:56.488Z,47.20
2018-03-03T05:05:37.608Z,47.10
2018-03-03T05:11:16.919Z,47.70
2018-03-03T05:13:45.168Z,47.40
2018-03-03T05:16:19.120Z,47.40
2018-03-03T05:22:05.544Z,47.70
2018-03-03T05:24:40.268Z,48.00
2018-03-03T05:27:14.893Z,48.00
2018-03-03T05:32:50.254Z,47.70
2018-03-03T05:35:39.995Z,47.90
2018-03-03T05:38:10.671Z,47.80
2018-03-03T05:43:49.978Z,47.50
2018-03-03T05:46:22.268Z,47.60
2018-03-03T05:51:59.057Z,47.80
2018-03-03T05:54:33.100Z,48.60
2018-03-03T06:00:19.394Z,48.00
2018-03-03T06:03:04.491Z,48.50
2018-03-03T06:05:35.200Z,48.70
2018-03-03T06:08:09.232Z,48.80
2018-03-03T06:10:43.691Z,48.90
2018-03-03T06:13:11.926Z,48.80
2018-03-03T06:15:40.193Z,48.70
2018-03-03T06:18:08.443Z,48.50
2018-03-03T06:20:36.906Z,48.60
2018-03-03T06:23:05.172Z,48.90
2018-03-03T06:25:33.362Z,49.10
2018-03-03T06:28:01.641Z,49.10
2018-03-03T06:30:29.940Z,49.00
2018-03-03T06:32:58.127Z,49.00
2018-03-03T06:35:26.358Z,48.90
2018-03-03T06:37:54.629Z,48.90
2018-03-03T06:40:22.897Z,49.00
2018-03-03T06:42:52.638Z,48.70
2018-03-03T06:45:20.878Z,48.70
2018-03-03T06:47:49.901Z,48.70
2018-03-03T06:50:18.157Z,48.70
2018-03-03T06:52:46.405Z,48.70
2018-03-03T06:55:14.619Z,48.70
2018-03-03T06:57:42.941Z,48.70
2018-03-03T07:00:11.161Z,48.70
2018-03-03T07:02:39.396Z,48.70
2018-03-03T07:05:07.851Z,48.60
2018-03-03T07:07:36.098Z,48.50
2018-03-03T07:10:04.354Z,48.60
2018-03-03T07:12:33.380Z,48.70
2018-03-03T07:15:05.445Z,48.60
2018-03-03T07:17:33.843Z,48.70
2018-03-03T07:20:02.085Z,48.90
2018-03-03T07:22:30.413Z,48.90
2018-03-03T07:24:59.401Z,48.90
2018-03-03T07:27:27.624Z,48.90
2018-03-03T07:29:55.902Z,48.90
2018-03-03T07:32:24.900Z,49.30
2018-03-03T07:34:53.919Z,49.10
2018-03-03T07:37:22.163Z,49.00
2018-03-03T07:39:50.400Z,49.00
2018-03-03T07:42:18.670Z,49.00
2018-03-03T07:44:46.917Z,49.10
2018-03-03T07:47:15.148Z,49.10
2018-03-03T07:49:43.391Z,49.00
2018-03-03T07:52:11.617Z,49.20
2018-03-03T07:54:40.637Z,49.00
2018-03-03T07:57:11.945Z,49.00
2018-03-03T07:59:40.944Z,49.00
2018-03-03T08:02:10.125Z,48.80
2018-03-03T08:04:38.432Z,48.80
2018-03-03T08:07:06.705Z,48.50
2018-03-03T08:09:35.721Z,48.40
2018-03-03T08:12:04.020Z,48.30
2018-03-03T08:14:32.300Z,48.40
2018-03-03T08:17:00.661Z,48.50
2018-03-03T08:19:28.986Z,48.50
2018-03-03T08:21:57.261Z,48.50
2018-03-03T08:24:25.518Z,48.50
2018-03-03T08:26:53.751Z,48.40
2018-03-03T08:29:22.881Z,48.30
2018-03-03T08:31:51.169Z,48.20
2018-03-03T08:34:19.444Z,47.70
2018-03-03T08:36:47.719Z,47.70
2018-03-03T08:39:15.975Z,47.60
2018-03-03T08:41:46.015Z,47.60
2018-03-03T08:44:14.315Z,47.50
2018-03-03T08:46:42.618Z,47.50
2018-03-03T08:49:11.738Z,47.00
2018-03-03T08:51:40.027Z,46.90
2018-03-03T08:54:08.289Z,46.50
2018-03-03T08:56:36.551Z,46.30
2018-03-03T08:59:04.794Z,45.90
2018-03-03T09:01:33.059Z,45.80
2018-03-03T09:04:01.300Z,45.80
2018-03-03T09:06:29.666Z,46.40
2018-03-03T09:08:57.938Z,45.50
2018-03-03T09:11:26.194Z,45.30
2018-03-03T09:13:55.248Z,45.20
2018-03-03T09:16:23.503Z,45.20
2018-03-03T09:18:51.741Z,45.00
2018-03-03T09:21:20.755Z,44.80
2018-03-03T09:23:49.594Z,44.70
2018-03-03T09:26:17.845Z,44.70
2018-03-03T09:28:46.117Z,44.70
2018-03-03T09:31:14.361Z,44.10
2018-03-03T09:33:42.654Z,44.20
2018-03-03T09:36:10.911Z,44.50
2018-03-03T09:38:39.990Z,44.70
2018-03-03T09:41:08.263Z,44.60
2018-03-03T09:43:36.516Z,44.50
2018-03-03T09:46:04.820Z,44.20
2018-03-03T09:48:33.100Z,44.10
2018-03-03T09:51:02.137Z,44.20
2018-03-03T09:53:30.387Z,44.20
2018-03-03T09:55:58.665Z,43.80
2018-03-03T09:58:26.885Z,43.70
2018-03-03T10:00:55.132Z,43.60
2018-03-03T10:03:23.358Z,44.00
2018-03-03T10:05:51.593Z,44.00
2018-03-03T10:08:19.827Z,44.10
2018-03-03T10:10:48.870Z,44.20
2018-03-03T10:13:17.101Z,44.10
2018-03-03T10:15:46.845Z,43.90
2018-03-03T10:18:15.124Z,43.90
2018-03-03T10:20:43.389Z,43.70
2018-03-03T10:23:12.410Z,43.40
2018-03-03T10:25:40.665Z,43.40
2018-03-03T10:28:08.968Z,43.60
2018-03-03T10:30:37.273Z,43.60
2018-03-03T10:33:05.516Z,43.50
2018-03-03T10:35:33.762Z,43.60
2018-03-03T10:38:02.041Z,43.50
2018-03-03T10:40:30.336Z,43.40
2018-03-03T10:42:58.590Z,43.00
2018-03-03T10:45:27.612Z,42.90
2018-03-03T10:47:55.883Z,42.80
2018-03-03T10:50:24.162Z,42.90
2018-03-03T10:52:52.451Z,42.70
2018-03-03T10:55:20.710Z,42.50
2018-03-03T10:57:48.965Z,42.30
2018-03-03T11:00:27.562Z,42.60
2018-03-03T11:02:55.802Z,42.60
2018-03-03T11:05:24.084Z,42.50
2018-03-03T11:07:52.334Z,42.40
2018-03-03T11:10:20.607Z,42.20
2018-03-03T11:12:48.884Z,42.10
2018-03-03T11:15:17.237Z,42.30
2018-03-03T11:17:46.239Z,42.20
2018-03-03T11:20:15.261Z,41.90
2018-03-03T11:22:43.522Z,41.90
2018-03-03T11:25:11.846Z,41.50
2018-03-03T11:27:40.125Z,41.90
2018-03-03T11:30:08.368Z,42.10
2018-03-03T11:32:36.712Z,42.30
2018-03-03T11:35:05.016Z,42.40
2018-03-03T11:37:33.248Z,42.20
2018-03-03T11:40:01.575Z,41.70
2018-03-03T11:42:29.900Z,41.60
2018-03-03T11:44:58.127Z,41.50
2018-03-03T11:47:26.398Z,41.60
2018-03-03T11:49:55.470Z,41.80
2018-03-03T11:52:23.728Z,41.80
2018-03-03T11:54:52.736Z,41.80
2018-03-03T11:57:21.148Z,41.80
2018-03-03T11:59:49.389Z,41.80
2018-03-03T12:02:18.557Z,41.50
2018-03-03T12:04:46.832Z,41.50
2018-03-03T12:07:15.237Z,41.50
2018-03-03T12:09:43.623Z,41.10
2018-03-03T12:12:12.703Z,40.90
2018-03-03T12:14:40.939Z,40.80
2018-03-03T12:17:09.193Z,41.10
2018-03-03T12:19:37.425Z,41.10
2018-03-03T12:22:05.760Z,40.90
2018-03-03T12:24:33.971Z,41.50
2018-03-03T12:27:02.321Z,41.00
2018-03-03T12:29:30.580Z,40.60
2018-03-03T12:31:58.886Z,40.90
2018-03-03T12:34:27.290Z,41.00
2018-03-03T12:36:56.331Z,41.10
2018-03-03T12:39:24.595Z,41.00
2018-03-03T12:41:52.872Z,40.80
2018-03-03T12:44:21.116Z,40.70
2018-03-03T12:46:49.359Z,40.60
2018-03-03T12:49:17.629Z,40.70
2018-03-03T12:51:45.936Z,40.60
2018-03-03T12:54:14.270Z,40.40
2018-03-03T12:56:42.549Z,40.40
2018-03-03T12:59:10.802Z,40.50
2018-03-03T13:01:39.117Z,40.30
2018-03-03T13:04:07.407Z,40.30
2018-03-03T13:06:35.756Z,40.40
2018-03-03T13:09:04.742Z,40.50
2018-03-03T13:11:32.994Z,40.40
2018-03-03T13:14:01.286Z,40.60
2018-03-03T13:16:29.505Z,40.80
2018-03-03T13:18:57.769Z,40.60
2018-03-03T13:21:26.009Z,40.70
2018-03-03T13:23:54.324Z,40.80
2018-03-03T13:26:22.568Z,40.60
2018-03-03T13:28:51.003Z,40.70
2018-03-03T13:31:19.328Z,40.70
2018-03-03T13:33:47.577Z,40.60
2018-03-03T13:36:15.812Z,40.90
2018-03-03T13:38:44.101Z,40.80
2018-03-03T13:41:12.357Z,40.90
2018-03-03T13:43:40.578Z,40.90
2018-03-03T13:46:09.631Z,41.70
2018-03-03T13:48:37.913Z,41.00
2018-03-03T13:51:06.174Z,41.10
2018-03-03T13:53:34.418Z,41.10
2018-03-03T13:56:03.491Z,40.90
2018-03-03T13:58:32.538Z,40.90
2018-03-03T14:01:00.773Z,40.70
2018-03-03T14:03:29.808Z,40.70
2018-03-03T14:05:58.711Z,40.60
2018-03-03T14:08:27.081Z,40.90
2018-03-03T14:13:30.586Z,41.00
2018-03-03T14:15:58.856Z,41.00
2018-03-03T14:18:27.098Z,40.90
2018-03-03T14:20:55.405Z,40.70
2018-03-03T14:23:23.653Z,40.70
2018-03-03T14:25:51.927Z,40.70
2018-03-03T14:28:20.162Z,40.70
2018-03-03T14:30:48.397Z,40.60
2018-03-03T14:33:16.651Z,40.90
2018-03-03T14:35:44.934Z,40.90
2018-03-03T14:38:13.152Z,40.90
2018-03-03T14:40:41.401Z,40.90
2018-03-03T14:43:10.410Z,40.90
2018-03-03T14:45:38.656Z,40.90
2018-03-03T14:48:07.115Z,41.00
2018-03-03T14:50:35.367Z,41.00
2018-03-03T14:53:03.625Z,41.00
2018-03-03T14:55:31.882Z,41.20
2018-03-03T14:58:00.874Z,42.00
2018-03-03T15:00:29.888Z,41.00
2018-03-03T15:02:58.148Z,41.00
2018-03-03T15:05:27.147Z,40.80
2018-03-03T15:07:55.369Z,40.70
2018-03-03T15:10:23.602Z,40.90
2018-03-03T15:12:51.858Z,40.90
2018-03-03T15:15:20.843Z,40.40
2018-03-03T15:17:49.083Z,40.30
2018-03-03T15:20:17.312Z,40.70
2018-03-03T15:22:46.302Z,41.10
2018-03-03T15:25:15.297Z,40.70
2018-03-03T15:27:44.348Z,40.80
2018-03-03T15:30:13.304Z,40.90
2018-03-03T15:32:41.946Z,40.80
2018-03-03T15:35:10.210Z,40.70
2018-03-03T15:37:38.488Z,40.70
2018-03-03T15:40:06.762Z,40.70
2018-03-03T15:42:34.982Z,40.90
2018-03-03T15:45:03.279Z,40.90
2018-03-03T15:47:32.237Z,40.50
2018-03-03T15:50:01.262Z,40.70
2018-03-03T15:52:29.647Z,41.40
2018-03-03T15:54:57.973Z,40.70
2018-03-03T15:57:27.228Z,40.80
2018-03-03T15:59:55.442Z,40.80
2018-03-03T16:02:23.672Z,40.70
2018-03-03T16:04:51.980Z,40.50
2018-03-03T16:07:20.188Z,40.50
2018-03-03T16:09:49.221Z,40.50
2018-03-03T16:12:17.478Z,40.40
2018-03-03T16:14:47.252Z,40.50
2018-03-03T16:17:15.487Z,40.50
2018-03-03T16:19:43.761Z,40.50
2018-03-03T16:22:12.789Z,40.50
2018-03-03T16:24:41.052Z,40.40
2018-03-03T16:27:09.273Z,40.50
2018-03-03T16:29:37.654Z,40.40
2018-03-03T16:32:05.845Z,40.60
2018-03-03T16:34:34.069Z,40.60
2018-03-03T16:37:02.336Z,40.60
2018-03-03T16:39:30.574Z,40.70
2018-03-03T16:41:58.802Z,40.70
2018-03-03T16:44:27.150Z,40.60
2018-03-03T16:46:55.393Z,40.70
2018-03-03T16:49:23.609Z,40.70
2018-03-03T16:51:51.862Z,40.70
2018-03-03T16:54:20.086Z,40.70
2018-03-03T16:56:48.354Z,40.90
2018-03-03T16:59:16.611Z,40.90
2018-03-03T17:01:44.871Z,40.90
2018-03-03T17:04:13.120Z,41.00
2018-03-03T17:06:42.151Z,41.20
2018-03-03T17:09:10.401Z,41.20
2018-03-03T17:11:38.845Z,41.20
2018-03-03T17:14:07.144Z,41.20
2018-03-03T17:16:35.372Z,41.20
2018-03-03T17:19:04.181Z,41.40
2018-03-03T17:21:34.041Z,41.50
2018-03-03T17:24:02.314Z,41.40
2018-03-03T17:26:30.602Z,41.40
2018-03-03T17:28:58.957Z,41.40
2018-03-03T17:31:27.191Z,41.40
2018-03-03T17:33:55.473Z,41.60
2018-03-03T17:36:23.713Z,41.60
2018-03-03T17:38:51.998Z,41.80
2018-03-03T17:41:20.265Z,41.80
2018-03-03T17:43:48.561Z,41.90
2018-03-03T17:46:16.823Z,42.00
2018-03-03T17:48:45.065Z,42.10
2018-03-03T17:51:13.870Z,42.10
2018-03-03T17:53:42.129Z,42.10
2018-03-03T17:56:11.157Z,42.20
2018-03-03T17:58:39.405Z,42.10
2018-03-03T18:01:07.628Z,42.00
2018-03-03T18:03:35.885Z,42.00
2018-03-03T18:06:04.150Z,41.90
2018-03-03T18:08:33.242Z,41.80
2018-03-03T18:11:01.562Z,41.80
2018-03-03T18:13:32.337Z,41.70
2018-03-03T18:16:00.599Z,41.70
2018-03-03T18:18:31.745Z,41.60
2018-03-03T18:20:59.984Z,41.80
2018-03-03T18:23:28.232Z,41.90
2018-03-03T18:25:56.493Z,41.90
2018-03-03T18:28:25.533Z,42.00
2018-03-03T18:30:53.850Z,41.90
2018-03-03T18:33:22.114Z,41.90
2018-03-03T18:35:50.383Z,42.00
2018-03-03T18:38:18.628Z,42.90
2018-03-03T18:40:46.866Z,42.20
2018-03-03T18:43:15.898Z,42.60
2018-03-03T18:45:44.149Z,42.50
2018-03-03T18:48:12.377Z,42.50
2018-03-03T18:50:40.659Z,42.60
2018-03-03T18:53:08.859Z,42.50
2018-03-03T18:55:37.883Z,42.70
2018-03-03T18:58:06.174Z,42.60
2018-03-03T19:00:34.416Z,42.70
2018-03-03T19:03:03.540Z,42.60
2018-03-03T19:05:31.750Z,42.50
2018-03-03T19:07:59.969Z,42.60
2018-03-03T19:10:28.971Z,42.90
2018-03-03T19:12:57.268Z,42.80
2018-03-03T19:15:25.514Z,42.90
2018-03-03T19:17:54.526Z,42.80
2018-03-03T19:20:22.829Z,42.70
2018-03-03T19:22:51.064Z,42.80
2018-03-03T19:25:19.292Z,42.80
2018-03-03T19:27:48.298Z,43.00
2018-03-03T19:30:16.588Z,43.00
2018-03-03T19:32:44.847Z,42.90
2018-03-03T19:35:13.082Z,43.40
2018-03-03T19:37:41.358Z,43.20
2018-03-03T19:40:09.592Z,43.20
2018-03-03T19:42:37.920Z,43.00
2018-03-03T19:45:06.152Z,43.00
2018-03-03T19:47:35.194Z,43.50
2018-03-03T19:50:03.422Z,43.10
2018-03-03T19:52:32.567Z,43.10
2018-03-03T19:55:01.571Z,43.10
2018-03-03T19:57:29.825Z,43.40
2018-03-03T19:59:58.084Z,43.30
2018-03-03T20:02:26.361Z,43.20
2018-03-03T20:04:55.376Z,43.20
2018-03-03T20:07:24.372Z,43.40
2018-03-03T20:09:52.637Z,43.30
2018-03-03T20:12:20.890Z,43.40
2018-03-03T20:14:49.907Z,43.40
2018-03-03T20:17:18.234Z,43.40
2018-03-03T20:19:46.499Z,43.40
2018-03-03T20:22:14.771Z,43.40
2018-03-03T20:24:43.272Z,43.60
2018-03-03T20:27:11.515Z,43.70
2018-03-03T20:29:39.839Z,43.70
2018-03-03T20:32:08.116Z,43.70
2018-03-03T20:34:37.141Z,43.60
2018-03-03T20:37:05.382Z,43.90
2018-03-03T20:39:34.411Z,44.10
2018-03-03T20:42:02.698Z,44.10
2018-03-03T20:44:30.930Z,44.00
2018-03-03T20:46:59.930Z,44.20
2018-03-03T20:49:28.966Z,44.00
2018-03-03T20:51:57.254Z,44.00
2018-03-03T20:54:25.523Z,44.20
2018-03-03T20:56:53.793Z,44.20
2018-03-03T20:59:22.022Z,43.90
2018-03-03T21:01:50.262Z,44.00
2018-03-03T21:04:18.532Z,44.00
2018-03-03T21:06:46.768Z,44.00
2018-03-03T21:09:15.785Z,44.30
2018-03-03T21:11:44.903Z,44.20
2018-03-03T21:14:13.150Z,44.40
2018-03-03T21:16:42.151Z,44.90
2018-03-03T21:19:10.397Z,44.80
2018-03-03T21:21:39.423Z,44.40
2018-03-03T21:24:07.699Z,44.30
2018-03-03T21:26:36.692Z,44.30
2018-03-03T21:29:04.988Z,44.20
2018-03-03T21:31:33.233Z,44.30
2018-03-03T21:34:01.462Z,44.20
2018-03-03T21:36:29.757Z,44.20
2018-03-03T21:38:57.998Z,44.30
2018-03-03T21:41:26.225Z,44.40
2018-03-03T21:43:55.345Z,44.40
2018-03-03T21:46:23.659Z,44.30
2018-03-03T21:48:52.007Z,44.30
2018-03-03T21:51:20.275Z,44.80
2018-03-03T21:53:48.543Z,44.90
2018-03-03T21:56:16.756Z,44.30
2018-03-03T21:58:45.017Z,44.30
2018-03-03T22:01:13.249Z,44.20
2018-03-03T22:03:42.251Z,44.20
2018-03-03T22:06:11.265Z,44.40
2018-03-03T22:08:39.557Z,44.30
2018-03-03T22:11:07.813Z,44.40
2018-03-03T22:13:36.041Z,44.40
2018-03-03T22:16:04.302Z,44.50
2018-03-03T22:18:32.568Z,44.60
2018-03-03T22:21:00.784Z,44.70
2018-03-03T22:23:29.792Z,44.80
2018-03-03T22:25:58.811Z,44.60
2018-03-03T22:28:27.048Z,44.60
2018-03-03T22:30:55.314Z,44.70
2018-03-03T22:33:23.580Z,45.40
2018-03-03T22:35:51.810Z,44.70
2018-03-03T22:38:20.047Z,44.50
2018-03-03T22:40:48.300Z,44.50
2018-03-03T22:43:16.531Z,44.60
2018-03-03T22:45:44.778Z,44.50
2018-03-03T22:48:13.054Z,44.60
2018-03-03T22:50:42.065Z,44.70
2018-03-03T22:53:11.072Z,44.90
2018-03-03T22:55:39.304Z,44.80
2018-03-03T22:58:07.611Z,44.90
2018-03-03T23:00:35.796Z,44.80
2018-03-03T23:03:04.017Z,44.60
2018-03-03T23:05:32.271Z,44.60
2018-03-03T23:08:00.506Z,44.60
2018-03-03T23:10:29.624Z,44.80
2018-03-03T23:12:57.877Z,44.80
2018-03-03T23:15:26.869Z,44.60
2018-03-03T23:17:55.122Z,44.60
2018-03-03T23:20:23.382Z,44.60
2018-03-03T23:22:51.633Z,44.70
2018-03-03T23:25:19.878Z,44.60
2018-03-03T23:27:48.873Z,45.00
2018-03-03T23:30:17.885Z,44.40
2018-03-03T23:32:46.138Z,44.30
2018-03-03T23:35:14.360Z,44.60
2018-03-03T23:37:42.605Z,44.60
2018-03-03T23:40:11.603Z,44.40
2018-03-03T23:42:39.853Z,44.40
2018-03-03T23:45:08.081Z,44.50
2018-03-03T23:47:36.357Z,44.50
2018-03-03T23:50:04.592Z,44.80
2018-03-03T23:52:33.724Z,45.00
2018-03-03T23:55:01.954Z,44.90
2018-03-03T23:57:30.954Z,46.00
2018-03-03T23:59:59.964Z,45.40
